createdAt,value
2022-09-26T00:01:32.106Z,94967.79
2022-09-26T00:04:04.100Z,94970.00
2022-09-26T00:06:30.794Z,94971.86
2022-09-26T00:08:57.521Z,94964.80
2022-09-26T00:11:26.108Z,94965.07
2022-09-26T00:13:54.263Z,94962.42
2022-09-26T00:16:21.492Z,94959.89
2022-09-26T00:18:49.153Z,94953.02
2022-09-26T00:21:19.453Z,94953.48
2022-09-26T00:23:46.372Z,94947.90
2022-09-26T00:26:13.657Z,94948.52
2022-09-26T00:28:40.536Z,94949.44
2022-09-26T00:31:11.746Z,94947.23
2022-09-26T00:33:38.648Z,94952.05
2022-09-26T00:36:05.813Z,94954.33
2022-09-26T00:38:32.453Z,94949.60
2022-09-26T00:40:59.592Z,94940.67
2022-09-26T00:43:30.792Z,94929.02
2022-09-26T00:46:00.136Z,94930.92
2022-09-26T00:48:26.961Z,94934.36
2022-09-26T00:50:55.346Z,94938.73
2022-09-26T00:53:24.792Z,94942.88
2022-09-26T00:55:59.099Z,94941.77
2022-09-26T00:58:35.965Z,94942.98
2022-09-26T01:01:05.958Z,94936.95
2022-09-26T01:03:52.547Z,94941.04
2022-09-26T01:06:19.785Z,94939.81
2022-09-26T01:08:56.791Z,94935.71
2022-09-26T01:11:23.408Z,94942.27
2022-09-26T01:13:51.791Z,94940.65
2022-09-26T01:16:18.394Z,94938.56
2022-09-26T01:18:45.560Z,94937.20
2022-09-26T01:21:37.062Z,94938.30
2022-09-26T01:24:29.761Z,94930.15
2022-09-26T01:27:11.322Z,94927.64
2022-09-26T01:35:32.737Z,94924.45
2022-09-26T01:38:10.821Z,94930.55
2022-09-26T01:40:41.797Z,94926.65
2022-09-26T01:43:11.657Z,94924.38
2022-09-26T01:45:45.893Z,94920.49
2022-09-26T01:48:17.834Z,94916.61
2022-09-26T01:50:52.767Z,94921.77
2022-09-26T01:53:23.026Z,94922.13
2022-09-26T01:56:09.943Z,94921.77
2022-09-26T01:58:40.055Z,94927.78
2022-09-26T02:01:09.971Z,94928.42
2022-09-26T02:03:44.747Z,94922.73
2022-09-26T02:06:14.177Z,94918.91
2022-09-26T02:08:44.201Z,94914.19
2022-09-26T02:11:11.761Z,94917.54
2022-09-26T02:13:55.838Z,94923.20
2022-09-26T02:16:32.423Z,94908.68
2022-09-26T02:19:05.086Z,94899.14
2022-09-26T02:21:31.684Z,94878.25
2022-09-26T02:23:58.217Z,94890.68
2022-09-26T02:26:24.905Z,94894.23
2022-09-26T02:28:51.646Z,94883.66
2022-09-26T02:31:24.906Z,94883.70
2022-09-26T02:33:52.820Z,94886.39
2022-09-26T02:36:20.519Z,94877.31
2022-09-26T02:38:48.722Z,94876.70
2022-09-26T02:41:43.138Z,94872.02
2022-09-26T02:44:16.419Z,94870.17
2022-09-26T02:46:57.750Z,94866.02
2022-09-26T02:49:27.372Z,94861.84
2022-09-26T02:51:57.053Z,94857.48
2022-09-26T02:54:32.975Z,94857.03
2022-09-26T02:57:12.802Z,94849.64
2022-09-26T02:59:57.149Z,94851.19
2022-09-26T03:02:27.733Z,94862.77
2022-09-26T03:05:22.809Z,94863.63
2022-09-26T03:07:53.438Z,94860.48
2022-09-26T03:10:20.298Z,94851.32
2022-09-26T03:12:48.718Z,94843.12
2022-09-26T03:15:16.763Z,94832.45
2022-09-26T03:17:46.490Z,94836.75
2022-09-26T03:20:19.191Z,94841.62
2022-09-26T03:22:45.918Z,94849.33
2022-09-26T03:25:20.715Z,94847.76
2022-09-26T03:27:56.555Z,94845.77
2022-09-26T03:30:23.362Z,94839.70
2022-09-26T03:32:55.402Z,94833.52
2022-09-26T03:35:22.021Z,94828.58
2022-09-26T03:37:49.948Z,94824.86
2022-09-26T03:40:25.955Z,94822.13
2022-09-26T03:43:02.413Z,94819.11
2022-09-26T03:45:29.313Z,94816.31
2022-09-26T03:48:08.962Z,94818.73
2022-09-26T03:50:35.476Z,94818.23
2022-09-26T03:53:02.184Z,94805.41
2022-09-26T03:55:28.797Z,94811.67
2022-09-26T03:57:55.455Z,94807.30
2022-09-26T04:00:28.081Z,94801.54
2022-09-26T04:02:54.729Z,94796.45
2022-09-26T04:05:30.753Z,94799.13
2022-09-26T04:08:19.918Z,94801.44
2022-09-26T04:10:46.509Z,94796.71
2022-09-26T04:13:46.545Z,94789.52
2022-09-26T04:16:00.557Z,94789.33
2022-09-26T04:18:27.576Z,94790.36
2022-09-26T04:20:58.219Z,94796.30
2022-09-26T04:23:26.752Z,94792.73
2022-09-26T04:25:53.571Z,94794.67
2022-09-26T04:28:30.361Z,94800.54
2022-09-26T04:30:57.761Z,94791.73
2022-09-26T04:33:24.890Z,94792.04
2022-09-26T04:36:03.217Z,94788.32
2022-09-26T04:38:37.449Z,94779.92
2022-09-26T04:41:15.909Z,94776.18
2022-09-26T04:43:42.693Z,94772.56
2022-09-26T04:46:24.714Z,94761.05
2022-09-26T04:48:57.782Z,94758.00
2022-09-26T04:51:25.805Z,94749.21
2022-09-26T04:53:52.575Z,94741.23
2022-09-26T04:56:25.656Z,94734.70
2022-09-26T04:58:55.647Z,94725.73
2022-09-26T05:01:50.136Z,94722.41
2022-09-26T05:04:27.486Z,94724.29
2022-09-26T05:06:57.079Z,94718.91
2022-09-26T05:09:31.686Z,94719.66
2022-09-26T05:12:32.469Z,94730.06
2022-09-26T05:15:05.997Z,94732.46
2022-09-26T05:17:33.697Z,94729.55
2022-09-26T05:20:00.706Z,94734.89
2022-09-26T05:22:37.676Z,94743.09
2022-09-26T05:26:12.742Z,94740.44
2022-09-26T05:28:40.154Z,94735.73
2022-09-26T05:34:57.016Z,94733.02
2022-09-26T05:37:24.543Z,94736.48
2022-09-26T05:40:13.787Z,94738.54
2022-09-26T05:42:44.869Z,94736.20
2022-09-26T05:45:13.252Z,94738.39
2022-09-26T05:47:41.596Z,94737.27
2022-09-26T05:50:11.388Z,94739.79
2022-09-26T05:52:39.831Z,94734.11
2022-09-26T05:55:16.638Z,94735.07
2022-09-26T05:57:58.641Z,94735.41
2022-09-26T06:00:29.541Z,94727.86
2022-09-26T06:02:56.924Z,94724.15
2022-09-26T06:08:25.440Z,94730.23
2022-09-26T06:11:21.993Z,94723.08
2022-09-26T06:13:48.956Z,94723.04
2022-09-26T06:16:46.828Z,94719.89
2022-09-26T06:19:22.685Z,94721.93
2022-09-26T06:21:50.020Z,94723.34
2022-09-26T06:24:19.847Z,94717.14
2022-09-26T06:26:49.321Z,94723.05
2022-09-26T06:29:16.332Z,94724.79
2022-09-26T06:31:42.951Z,94717.83
2022-09-26T06:34:12.314Z,94716.52
2022-09-26T06:36:46.768Z,94718.73
2022-09-26T06:39:14.610Z,94714.77
2022-09-26T06:41:41.454Z,94707.15
2022-09-26T06:44:19.164Z,94709.42
2022-09-26T06:46:54.675Z,94703.45
2022-09-26T06:49:29.269Z,94700.98
2022-09-26T06:52:10.672Z,94702.39
2022-09-26T06:54:38.668Z,94706.16
2022-09-26T06:57:14.195Z,94703.91
2022-09-26T06:59:41.774Z,94700.20
2022-09-26T07:02:23.312Z,94706.04
2022-09-26T07:05:13.991Z,94706.30
2022-09-26T07:07:49.960Z,94696.20
2022-09-26T07:10:36.990Z,94699.52
2022-09-26T07:13:10.697Z,94693.42
2022-09-26T07:16:06.150Z,94690.61
2022-09-26T07:18:45.942Z,94682.52
2022-09-26T07:21:32.034Z,94685.70
2022-09-26T07:24:03.863Z,94680.91
2022-09-26T07:26:32.138Z,94672.75
2022-09-26T07:28:58.998Z,94670.55
2022-09-26T07:31:27.964Z,94670.52
2022-09-26T07:34:03.452Z,94673.24
2022-09-26T07:36:31.183Z,94668.38
2022-09-26T07:38:58.745Z,94664.27
2022-09-26T07:41:29.416Z,94664.02
2022-09-26T07:46:59.745Z,94679.11
2022-09-26T07:49:38.670Z,94674.94
2022-09-26T07:52:22.013Z,94666.45
2022-09-26T07:55:22.698Z,94657.11
2022-09-26T07:58:17.819Z,94651.48
2022-09-26T08:00:56.424Z,94655.12
2022-09-26T08:03:49.561Z,94655.33
2022-09-26T08:06:27.203Z,94650.25
2022-09-26T08:08:54.969Z,94648.23
2022-09-26T08:11:33.845Z,94639.09
2022-09-26T08:14:21.483Z,94636.05
2022-09-26T08:17:14.269Z,94637.27
2022-09-26T08:19:44.499Z,94636.70
2022-09-26T08:22:11.679Z,94634.39
2022-09-26T08:24:38.430Z,94639.02
2022-09-26T08:27:22.556Z,94640.94
2022-09-26T08:29:50.406Z,94639.80
2022-09-26T08:32:18.300Z,94641.90
2022-09-26T08:34:46.557Z,94638.93
2022-09-26T08:37:40.077Z,94635.20
2022-09-26T08:40:44.069Z,94628.88
2022-09-26T08:44:16.444Z,94630.96
2022-09-26T08:47:37.836Z,94627.24
2022-09-26T08:54:06.971Z,94632.70
2022-09-26T08:56:56.193Z,94637.77
2022-09-26T08:59:23.518Z,94636.14
2022-09-26T09:02:49.903Z,94641.39
2022-09-26T09:05:19.385Z,94656.15
2022-09-26T09:07:49.646Z,94663.59
2022-09-26T09:14:02.881Z,94660.40
2022-09-26T09:24:38.434Z,94667.02
2022-09-26T09:31:07.875Z,94684.91
2022-09-26T09:33:49.880Z,94680.80
2022-09-26T09:37:04.934Z,94666.88
2022-09-26T09:40:23.026Z,94678.88
2022-09-26T09:43:32.885Z,94676.67
2022-09-26T09:49:30.019Z,94689.39
2022-09-26T09:59:24.905Z,94720.16
2022-09-26T10:06:04.196Z,94736.16
2022-09-26T10:08:41.118Z,94726.17
2022-09-26T10:12:08.217Z,94742.43
2022-09-26T10:25:27.519Z,94713.02
2022-09-26T10:28:06.330Z,94706.09
2022-09-26T10:43:34.454Z,94754.27
2022-09-26T10:51:01.478Z,94749.21
2022-09-26T10:54:26.102Z,94753.52
2022-09-26T11:03:55.304Z,94688.96
2022-09-26T11:13:32.547Z,94687.52
2022-09-26T11:16:37.743Z,94674.54
2022-09-26T11:19:44.800Z,94678.08
2022-09-26T11:32:43.270Z,94692.52
2022-09-26T11:54:17.296Z,94676.82
2022-09-26T12:32:43.330Z,94616.03
2022-09-26T13:12:05.546Z,94585.92
2022-09-26T13:25:36.288Z,94588.07
2022-09-26T13:42:43.308Z,94583.16
2022-09-26T13:52:12.230Z,94569.05
2022-09-26T13:54:45.188Z,94571.05
2022-09-26T14:37:02.020Z,94573.52
2022-09-26T14:43:15.214Z,94576.61
2022-09-26T14:49:24.549Z,94574.86
2022-09-26T14:51:59.827Z,94569.55
2022-09-26T14:55:14.621Z,94568.60
2022-09-26T14:58:15.578Z,94565.89
2022-09-26T15:08:39.117Z,94583.69
2022-09-26T15:37:08.731Z,94567.33
2022-09-26T15:46:34.904Z,94570.54
2022-09-26T15:49:01.672Z,94563.14
2022-09-26T15:58:04.209Z,94561.23
2022-09-26T16:00:42.774Z,94563.92
2022-09-26T16:06:52.140Z,94561.93
2022-09-26T16:12:49.077Z,94556.16
2022-09-26T16:19:28.641Z,94551.50
2022-09-26T16:22:35.785Z,94554.60
2022-09-26T16:25:23.649Z,94554.45
2022-09-26T16:31:47.191Z,94540.03
2022-09-26T16:37:59.409Z,94549.84
2022-09-26T16:40:58.135Z,94550.34
2022-09-26T16:44:11.735Z,94551.73
2022-09-26T16:57:36.764Z,94543.53
2022-09-26T17:18:20.736Z,94548.77
2022-09-26T17:21:18.010Z,94547.41
2022-09-26T17:23:48.408Z,94547.98
2022-09-26T17:33:15.433Z,94554.96
2022-09-26T17:36:41.432Z,94549.25
2022-09-26T17:39:54.618Z,94544.76
2022-09-26T17:42:29.740Z,94543.84
2022-09-26T17:56:15.993Z,94536.07
2022-09-26T18:13:30.005Z,94496.30
2022-09-26T18:21:00.811Z,94493.31
2022-09-26T18:34:28.078Z,94497.00
2022-09-26T18:51:11.159Z,94488.00
2022-09-26T19:08:40.451Z,94481.94
2022-09-26T19:25:42.935Z,94499.88
2022-09-26T20:48:08.062Z,94485.10
2022-09-26T20:57:34.119Z,94498.16
2022-09-26T21:04:25.944Z,94511.21
2022-09-26T21:07:22.656Z,94514.27
2022-09-26T21:10:21.279Z,94509.24
2022-09-26T21:17:13.976Z,94494.23
2022-09-26T21:19:57.198Z,94491.77
2022-09-26T21:23:04.229Z,94476.59
2022-09-26T21:47:43.093Z,94425.11
2022-09-26T22:00:39.603Z,94380.86
2022-09-26T22:14:17.542Z,94363.45
2022-09-26T22:20:57.349Z,94369.02
2022-09-26T22:24:21.053Z,94365.73
2022-09-26T22:41:15.557Z,94338.55
